Potash Point, Vermont
Current Conditions -  °F | °C
As of 7:55 PM on Saturday 25 Oct 2014 (Local Time) from K6B0 Reporting Station
Overcast Overcast  
Wind Chill: 56°   Ceiling: 5000
Heat Index: 56°   Visibility: 10mi
Dew Point: 47°   Wind: 7mph
Humidity: 72%   Direction: 170°S
Pressure: 29.5"   Gusts: NA
Location:  44.0804°N, 73.3324°W
Report Text: K6B0 252355Z AUTO 17006KT 10SM BKN050 OVC060 13/08 A2950 RMK AO2 T01310082 10155 20125
Loading
Personal Weather Stations






























Interactive Weather Map
Tropical Storm Tracking
New forecast layout! Learn more

10-Day Weather Forecast

Advertisements
Track Severe Weather on mobile